createdAt,value
2023-05-04T00:01:43.966Z,7.85
2023-05-04T00:06:46.923Z,7.88
2023-05-04T00:11:51.202Z,9.18
2023-05-04T00:16:54.165Z,8.60
2023-05-04T00:21:57.217Z,8.48
2023-05-04T00:27:01.130Z,8.55
2023-05-04T00:32:04.518Z,9.00
2023-05-04T00:37:07.948Z,8.30
2023-05-04T00:42:12.018Z,9.40
2023-05-04T00:47:16.778Z,8.60
2023-05-04T00:52:20.166Z,7.90
2023-05-04T00:57:24.333Z,8.90
2023-05-04T01:07:37.409Z,7.68
2023-05-04T01:12:43.076Z,7.78
2023-05-04T01:17:46.149Z,8.40
2023-05-04T01:22:50.146Z,7.80
2023-05-04T01:27:55.107Z,8.20
2023-05-04T01:32:59.050Z,8.07
2023-05-04T01:38:03.349Z,8.45
2023-05-04T01:43:05.904Z,8.13
2023-05-04T01:48:09.078Z,9.23
2023-05-04T01:53:13.316Z,8.10
2023-05-04T02:03:21.734Z,7.57
2023-05-04T02:08:26.748Z,8.50
2023-05-04T02:13:29.555Z,7.97
2023-05-04T02:18:32.452Z,8.73
2023-05-04T02:23:37.032Z,8.50
2023-05-04T02:28:40.096Z,8.10
2023-05-04T02:33:43.069Z,8.13
2023-05-04T02:38:47.530Z,7.22
2023-05-04T02:43:50.555Z,8.07
2023-05-04T02:48:53.234Z,7.15
2023-05-04T02:53:57.257Z,8.43
2023-05-04T02:59:00.165Z,8.30
2023-05-04T03:04:03.687Z,8.70
2023-05-04T03:09:08.141Z,8.90
2023-05-04T03:14:11.005Z,8.75
2023-05-04T03:19:13.580Z,9.07
2023-05-04T03:24:19.170Z,8.02
2023-05-04T03:29:22.094Z,7.93
2023-05-04T03:34:24.903Z,8.85
2023-05-04T03:39:29.213Z,8.05
2023-05-04T03:44:32.166Z,7.22
2023-05-04T03:49:35.425Z,8.65
2023-05-04T03:54:39.695Z,9.13
2023-05-04T03:59:42.756Z,2.45
2023-05-04T04:04:45.403Z,9.68
2023-05-04T04:09:49.407Z,8.20
2023-05-04T04:14:53.185Z,7.75
2023-05-04T04:19:56.564Z,8.73
2023-05-04T04:25:00.801Z,8.30
2023-05-04T04:30:04.900Z,8.43
2023-05-04T04:35:08.550Z,8.00
2023-05-04T04:40:13.855Z,6.82
2023-05-04T04:45:16.472Z,8.38
2023-05-04T04:50:19.630Z,7.47
2023-05-04T04:55:26.213Z,6.47
2023-05-04T05:00:29.273Z,9.15
2023-05-04T05:05:32.269Z,8.15
2023-05-04T05:10:36.700Z,5.82
2023-05-04T05:15:39.591Z,5.28
2023-05-04T05:20:42.434Z,9.35
2023-05-04T05:25:46.351Z,10.18
2023-05-04T05:30:49.669Z,8.40
2023-05-04T05:35:52.518Z,6.10
2023-05-04T05:40:56.918Z,6.10
2023-05-04T05:45:59.495Z,6.55
2023-05-04T05:51:02.117Z,6.47
2023-05-04T05:56:06.685Z,7.70
2023-05-04T06:01:09.218Z,6.82
2023-05-04T06:06:12.296Z,7.38
2023-05-04T06:11:16.581Z,8.85
2023-05-04T06:16:19.227Z,8.68
2023-05-04T06:21:22.080Z,7.82
2023-05-04T06:26:25.989Z,7.93
2023-05-04T06:31:28.615Z,8.18
2023-05-04T06:36:31.211Z,7.13
2023-05-04T06:41:35.960Z,7.18
2023-05-04T06:46:38.651Z,6.97
2023-05-04T06:51:41.204Z,5.40
2023-05-04T06:56:45.146Z,2.75
2023-05-04T07:06:51.201Z,5.60
2023-05-04T07:11:55.204Z,6.10
2023-05-04T07:22:00.777Z,4.53
2023-05-04T07:27:04.798Z,4.82
2023-05-04T07:32:07.322Z,4.47
2023-05-04T07:37:09.916Z,4.87
2023-05-04T07:42:13.872Z,5.30
2023-05-04T07:47:16.556Z,4.30
2023-05-04T07:52:19.147Z,4.88
2023-05-04T07:57:23.104Z,5.60
2023-05-04T08:02:25.830Z,4.97
2023-05-04T08:07:28.496Z,4.60
2023-05-04T08:12:32.537Z,4.63
2023-05-04T08:17:35.597Z,4.82
2023-05-04T08:22:38.885Z,5.18
2023-05-04T08:27:42.811Z,3.60
2023-05-04T08:32:45.364Z,3.85
2023-05-04T08:37:48.862Z,4.70
2023-05-04T08:42:52.995Z,4.72
2023-05-04T08:47:55.562Z,4.47
2023-05-04T08:53:01.032Z,4.63
2023-05-04T08:58:08.710Z,4.70
2023-05-04T09:03:12.654Z,4.40
2023-05-04T09:08:16.181Z,4.55
2023-05-04T09:13:20.120Z,4.85
2023-05-04T09:18:23.065Z,4.22
2023-05-04T09:23:26.786Z,4.63
2023-05-04T09:28:38.625Z,6.13
2023-05-04T09:33:41.513Z,4.53
2023-05-04T09:38:44.383Z,4.93
2023-05-04T09:43:48.475Z,5.05
2023-05-04T09:48:51.640Z,5.13
2023-05-04T09:53:54.461Z,4.90
2023-05-04T09:58:59.625Z,5.25
2023-05-04T10:04:02.997Z,5.50
2023-05-04T10:09:05.720Z,5.45
2023-05-04T10:14:09.667Z,4.88
2023-05-04T10:19:25.810Z,5.45
2023-05-04T10:24:43.176Z,5.10
2023-05-04T10:29:50.444Z,5.85
2023-05-04T10:34:53.423Z,5.10
2023-05-04T10:39:56.955Z,5.70
2023-05-04T10:45:00.901Z,5.60
2023-05-04T10:50:04.807Z,5.40
2023-05-04T10:55:09.171Z,5.18
2023-05-04T11:00:14.308Z,5.03
2023-05-04T11:05:20.004Z,5.15
2023-05-04T11:10:23.715Z,5.57
2023-05-04T11:15:27.819Z,5.60
2023-05-04T11:20:30.632Z,4.85
2023-05-04T11:25:36.010Z,4.90
2023-05-04T11:30:41.342Z,4.95
2023-05-04T11:35:44.850Z,5.45
2023-05-04T11:40:49.076Z,4.95
2023-05-04T11:45:56.149Z,5.18
2023-05-04T11:50:58.852Z,5.70
2023-05-04T11:56:03.141Z,6.47
2023-05-04T12:01:07.613Z,5.65
2023-05-04T12:06:10.606Z,4.82
2023-05-04T12:11:14.549Z,5.30
2023-05-04T12:16:19.617Z,5.00
2023-05-04T12:21:22.737Z,4.82
2023-05-04T12:26:25.568Z,5.10
2023-05-04T12:31:30.552Z,5.50
2023-05-04T12:36:33.622Z,5.30
2023-05-04T12:41:36.456Z,4.70
2023-05-04T12:46:40.809Z,5.15
2023-05-04T12:51:43.481Z,4.70
2023-05-04T12:56:46.413Z,4.30
2023-05-04T13:01:50.553Z,3.97
2023-05-04T13:06:53.185Z,4.32
2023-05-04T13:11:56.049Z,4.15
2023-05-04T13:17:00.001Z,5.35
2023-05-04T13:22:02.545Z,5.45
2023-05-04T13:27:05.272Z,4.53
2023-05-04T13:32:09.149Z,4.70
2023-05-04T13:37:16.679Z,5.10
2023-05-04T13:42:19.268Z,5.20
2023-05-04T13:47:23.731Z,3.95
2023-05-04T13:52:27.109Z,4.78
2023-05-04T13:57:30.234Z,4.72
2023-05-04T14:02:34.859Z,4.80
2023-05-04T14:07:37.714Z,4.88
2023-05-04T14:12:40.363Z,4.75
2023-05-04T14:17:44.603Z,4.35
2023-05-04T14:22:47.479Z,4.30
2023-05-04T14:27:50.361Z,4.72
2023-05-04T14:32:56.349Z,4.25
2023-05-04T14:37:59.525Z,4.50
2023-05-04T14:43:02.913Z,4.13
2023-05-04T14:48:09.054Z,4.50
2023-05-04T14:53:11.641Z,4.28
2023-05-04T14:58:15.469Z,3.40
2023-05-04T15:03:19.501Z,3.70
2023-05-04T15:08:22.231Z,3.60
2023-05-04T15:13:25.281Z,5.15
2023-05-04T15:18:29.525Z,3.70
2023-05-04T15:23:32.206Z,3.70
2023-05-04T15:28:35.230Z,3.75
2023-05-04T15:33:39.496Z,3.67
2023-05-04T15:38:42.572Z,3.75
2023-05-04T15:43:45.298Z,3.97
2023-05-04T15:48:49.270Z,4.03
2023-05-04T15:53:52.335Z,3.67
2023-05-04T15:58:55.200Z,3.83
2023-05-04T16:03:59.781Z,4.15
2023-05-04T16:09:02.483Z,4.00
2023-05-04T16:14:05.190Z,3.88
2023-05-04T16:19:11.522Z,4.18
2023-05-04T16:24:14.552Z,4.03
2023-05-04T16:29:17.187Z,4.28
2023-05-04T16:34:21.185Z,3.30
2023-05-04T16:39:27.470Z,4.15
2023-05-04T16:44:31.221Z,3.97
2023-05-04T16:49:35.247Z,3.30
2023-05-04T16:54:37.850Z,2.90
2023-05-04T16:59:40.898Z,3.38
2023-05-04T17:04:44.902Z,3.25
2023-05-04T17:09:47.501Z,3.35
2023-05-04T17:14:50.035Z,3.47
2023-05-04T17:19:54.057Z,3.53
2023-05-04T17:24:56.604Z,3.30
2023-05-04T17:29:59.149Z,3.47
2023-05-04T17:35:12.200Z,2.80
2023-05-04T17:40:23.589Z,2.85
2023-05-04T17:45:26.384Z,2.80
2023-05-04T17:50:30.823Z,3.17
2023-05-04T17:55:33.429Z,2.78
2023-05-04T18:00:37.006Z,2.75
2023-05-04T18:10:43.507Z,2.60
2023-05-04T18:15:46.122Z,2.55
2023-05-04T18:20:48.730Z,3.00
2023-05-04T18:25:52.880Z,2.77
2023-05-04T18:30:55.404Z,2.90
2023-05-04T18:35:58.078Z,2.92
2023-05-04T18:41:02.074Z,2.67
2023-05-04T18:46:08.120Z,3.00
2023-05-04T18:51:12.773Z,2.85
2023-05-04T18:56:16.691Z,2.60
2023-05-04T19:01:19.323Z,2.90
2023-05-04T19:06:21.893Z,2.80
2023-05-04T19:11:26.600Z,2.97
2023-05-04T19:16:29.504Z,3.08
2023-05-04T19:21:32.026Z,2.90
2023-05-04T19:26:37.103Z,4.43
2023-05-04T19:31:40.076Z,3.17
2023-05-04T19:36:43.066Z,3.03
2023-05-04T19:41:47.770Z,2.77
2023-05-04T19:46:51.644Z,2.75
2023-05-04T19:51:54.605Z,2.88
2023-05-04T19:56:58.574Z,3.03
2023-05-04T20:02:01.440Z,3.00
2023-05-04T20:07:04.345Z,2.40
2023-05-04T20:12:09.016Z,3.20
2023-05-04T20:17:11.876Z,2.95
2023-05-04T20:22:14.525Z,2.10
2023-05-04T20:27:18.623Z,2.90
2023-05-04T20:32:21.244Z,2.45
2023-05-04T20:37:23.898Z,3.22
2023-05-04T20:42:28.439Z,3.03
2023-05-04T20:47:31.058Z,2.88
2023-05-04T20:52:33.621Z,2.67
2023-05-04T20:57:37.733Z,3.20
2023-05-04T21:02:40.408Z,2.85
2023-05-04T21:07:43.103Z,2.63
2023-05-04T21:12:47.332Z,2.72
2023-05-04T21:17:50.732Z,2.60
2023-05-04T21:22:53.692Z,2.80
2023-05-04T21:27:58.867Z,2.90
2023-05-04T21:33:01.494Z,3.35
2023-05-04T21:38:04.668Z,3.83
2023-05-04T21:43:09.907Z,2.73
2023-05-04T21:48:12.752Z,2.47
2023-05-04T21:53:16.477Z,2.85
2023-05-04T21:58:21.563Z,2.45
2023-05-04T22:03:24.666Z,2.50
2023-05-04T22:08:29.339Z,2.70
2023-05-04T22:13:38.744Z,2.67
2023-05-04T22:18:42.041Z,2.45
2023-05-04T22:23:45.453Z,2.88
2023-05-04T22:28:50.428Z,3.03
2023-05-04T22:33:53.294Z,2.42
2023-05-04T22:38:58.537Z,2.38
2023-05-04T22:44:04.816Z,3.47
2023-05-04T22:49:08.467Z,3.03
2023-05-04T22:54:11.798Z,3.28
2023-05-04T22:59:16.347Z,2.63
2023-05-04T23:04:19.883Z,3.00
2023-05-04T23:09:23.441Z,2.85
2023-05-04T23:14:28.410Z,3.47
2023-05-04T23:19:32.054Z,3.17
2023-05-04T23:24:35.402Z,2.78
2023-05-04T23:29:39.876Z,2.90
2023-05-04T23:34:42.793Z,3.10
2023-05-04T23:39:46.389Z,3.08
2023-05-04T23:44:50.743Z,3.45
2023-05-04T23:49:53.561Z,2.75
2023-05-04T23:54:56.564Z,2.80
